sensor_id;sensor_type;location;lat;lon;timestamp;temperature;humidity
9951;DHT22;24074;49.254;6.702;2024-03-29T00:00:39;6.60;99.90
9951;DHT22;24074;49.254;6.702;2024-03-29T00:03:05;6.70;99.90
9951;DHT22;24074;49.254;6.702;2024-03-29T00:05:32;6.70;99.90
9951;DHT22;24074;49.254;6.702;2024-03-29T00:07:58;6.70;99.90
9951;DHT22;24074;49.254;6.702;2024-03-29T00:10:24;6.60;99.90
9951;DHT22;24074;49.254;6.702;2024-03-29T00:12:49;6.50;99.90
9951;DHT22;24074;49.254;6.702;2024-03-29T00:15:15;6.40;99.90
9951;DHT22;24074;49.254;6.702;2024-03-29T00:17:41;6.40;99.90
9951;DHT22;24074;49.254;6.702;2024-03-29T00:20:06;6.40;99.90
9951;DHT22;24074;49.254;6.702;2024-03-29T00:22:33;6.60;99.90
9951;DHT22;24074;49.254;6.702;2024-03-29T00:24:59;6.80;99.90
9951;DHT22;24074;49.254;6.702;2024-03-29T00:27:24;6.90;99.90
9951;DHT22;24074;49.254;6.702;2024-03-29T00:29:52;7.00;99.90
9951;DHT22;24074;49.254;6.702;2024-03-29T00:32:21;7.10;99.90
9951;DHT22;24074;49.254;6.702;2024-03-29T00:34:51;7.30;99.90
9951;DHT22;24074;49.254;6.702;2024-03-29T00:37:17;7.40;99.90
9951;DHT22;24074;49.254;6.702;2024-03-29T00:39:43;7.40;99.90
9951;DHT22;24074;49.254;6.702;2024-03-29T00:42:08;7.40;99.90
9951;DHT22;24074;49.254;6.702;2024-03-29T00:44:35;7.50;99.90
9951;DHT22;24074;49.254;6.702;2024-03-29T00:47:03;7.50;99.90
9951;DHT22;24074;49.254;6.702;2024-03-29T00:49:29;7.50;99.90
9951;DHT22;24074;49.254;6.702;2024-03-29T00:51:55;7.50;99.90
9951;DHT22;24074;49.254;6.702;2024-03-29T00:54:20;7.50;99.90
9951;DHT22;24074;49.254;6.702;2024-03-29T00:56:46;7.50;99.90
9951;DHT22;24074;49.254;6.702;2024-03-29T00:59:12;7.60;99.90
9951;DHT22;24074;49.254;6.702;2024-03-29T01:01:40;7.60;99.90
9951;DHT22;24074;49.254;6.702;2024-03-29T01:04:06;7.60;99.90
9951;DHT22;24074;49.254;6.702;2024-03-29T01:06:31;7.70;99.90
9951;DHT22;24074;49.254;6.702;2024-03-29T01:09:00;7.70;99.90
9951;DHT22;24074;49.254;6.702;2024-03-29T01:11:26;7.80;99.90
9951;DHT22;24074;49.254;6.702;2024-03-29T01:13:52;7.90;99.90
9951;DHT22;24074;49.254;6.702;2024-03-29T01:16:18;8.10;99.90
9951;DHT22;24074;49.254;6.702;2024-03-29T01:18:44;8.10;99.90
9951;DHT22;24074;49.254;6.702;2024-03-29T01:21:13;8.20;99.90
9951;DHT22;24074;49.254;6.702;2024-03-29T01:23:41;8.20;99.90
9951;DHT22;24074;49.254;6.702;2024-03-29T01:26:07;8.00;99.90
9951;DHT22;24074;49.254;6.702;2024-03-29T01:28:33;7.70;99.90
9951;DHT22;24074;49.254;6.702;2024-03-29T01:30:59;7.50;99.90
9951;DHT22;24074;49.254;6.702;2024-03-29T01:33:25;7.50;99.90
9951;DHT22;24074;49.254;6.702;2024-03-29T01:35:51;7.40;99.90
9951;DHT22;24074;49.254;6.702;2024-03-29T01:38:20;7.40;99.90
9951;DHT22;24074;49.254;6.702;2024-03-29T01:40:48;7.40;99.90
9951;DHT22;24074;49.254;6.702;2024-03-29T01:43:13;7.30;99.90
9951;DHT22;24074;49.254;6.702;2024-03-29T01:45:39;7.30;99.90
9951;DHT22;24074;49.254;6.702;2024-03-29T01:48:07;7.20;99.90
9951;DHT22;24074;49.254;6.702;2024-03-29T01:50:34;7.10;99.90
9951;DHT22;24074;49.254;6.702;2024-03-29T01:53:00;7.10;99.90
9951;DHT22;24074;49.254;6.702;2024-03-29T01:55:26;7.10;99.90
9951;DHT22;24074;49.254;6.702;2024-03-29T01:57:52;7.10;99.90
9951;DHT22;24074;49.254;6.702;2024-03-29T02:00:18;7.10;99.90
9951;DHT22;24074;49.254;6.702;2024-03-29T02:02:45;7.10;99.90
9951;DHT22;24074;49.254;6.702;2024-03-29T02:05:11;7.10;99.90
9951;DHT22;24074;49.254;6.702;2024-03-29T02:07:37;7.20;99.90
9951;DHT22;24074;49.254;6.702;2024-03-29T02:10:03;7.10;99.90
9951;DHT22;24074;49.254;6.702;2024-03-29T02:12:29;7.10;99.90
9951;DHT22;24074;49.254;6.702;2024-03-29T02:14:55;7.10;99.90
9951;DHT22;24074;49.254;6.702;2024-03-29T02:17:21;7.20;99.90
9951;DHT22;24074;49.254;6.702;2024-03-29T02:19:46;7.20;99.90
9951;DHT22;24074;49.254;6.702;2024-03-29T02:22:15;7.10;99.90
9951;DHT22;24074;49.254;6.702;2024-03-29T02:24:43;7.10;99.90
9951;DHT22;24074;49.254;6.702;2024-03-29T02:27:09;7.20;99.90
9951;DHT22;24074;49.254;6.702;2024-03-29T02:29:35;7.10;99.90
9951;DHT22;24074;49.254;6.702;2024-03-29T02:32:05;7.10;99.90
9951;DHT22;24074;49.254;6.702;2024-03-29T02:34:33;7.10;99.90
9951;DHT22;24074;49.254;6.702;2024-03-29T02:36:59;7.10;99.90
9951;DHT22;24074;49.254;6.702;2024-03-29T02:39:24;7.10;99.90
9951;DHT22;24074;49.254;6.702;2024-03-29T02:41:50;7.30;99.90
9951;DHT22;24074;49.254;6.702;2024-03-29T02:44:16;7.30;99.90
9951;DHT22;24074;49.254;6.702;2024-03-29T02:46:42;7.40;99.90
9951;DHT22;24074;49.254;6.702;2024-03-29T02:49:08;7.60;99.90
9951;DHT22;24074;49.254;6.702;2024-03-29T02:51:35;7.60;99.90
9951;DHT22;24074;49.254;6.702;2024-03-29T02:54:01;7.60;99.90
9951;DHT22;24074;49.254;6.702;2024-03-29T02:56:27;7.50;99.90
9951;DHT22;24074;49.254;6.702;2024-03-29T02:58:53;7.50;99.90
9951;DHT22;24074;49.254;6.702;2024-03-29T03:01:18;7.50;99.90
9951;DHT22;24074;49.254;6.702;2024-03-29T03:03:44;7.40;99.90
9951;DHT22;24074;49.254;6.702;2024-03-29T03:06:10;7.30;99.90
9951;DHT22;24074;49.254;6.702;2024-03-29T03:08:35;7.20;99.90
9951;DHT22;24074;49.254;6.702;2024-03-29T03:11:20;7.20;99.90
9951;DHT22;24074;49.254;6.702;2024-03-29T03:13:45;7.20;99.90
9951;DHT22;24074;49.254;6.702;2024-03-29T03:16:11;7.20;99.90
9951;DHT22;24074;49.254;6.702;2024-03-29T03:18:36;7.10;99.90
9951;DHT22;24074;49.254;6.702;2024-03-29T03:21:02;7.10;99.90
9951;DHT22;24074;49.254;6.702;2024-03-29T03:23:28;7.20;99.90
9951;DHT22;24074;49.254;6.702;2024-03-29T03:25:54;7.20;99.90
9951;DHT22;24074;49.254;6.702;2024-03-29T03:28:20;7.20;99.90
9951;DHT22;24074;49.254;6.702;2024-03-29T03:30:47;7.30;99.90
9951;DHT22;24074;49.254;6.702;2024-03-29T03:33:13;7.40;99.90
9951;DHT22;24074;49.254;6.702;2024-03-29T03:35:38;7.40;99.90
9951;DHT22;24074;49.254;6.702;2024-03-29T03:38:04;7.50;99.90
9951;DHT22;24074;49.254;6.702;2024-03-29T03:40:33;7.50;99.90
9951;DHT22;24074;49.254;6.702;2024-03-29T03:42:58;7.50;99.90
9951;DHT22;24074;49.254;6.702;2024-03-29T03:45:24;7.50;99.90
9951;DHT22;24074;49.254;6.702;2024-03-29T03:47:49;7.60;99.90
9951;DHT22;24074;49.254;6.702;2024-03-29T03:50:15;7.60;99.90
9951;DHT22;24074;49.254;6.702;2024-03-29T03:52:41;7.70;99.90
9951;DHT22;24074;49.254;6.702;2024-03-29T03:55:07;7.70;99.90
9951;DHT22;24074;49.254;6.702;2024-03-29T03:57:32;7.80;99.90
9951;DHT22;24074;49.254;6.702;2024-03-29T03:59:59;7.80;99.90
9951;DHT22;24074;49.254;6.702;2024-03-29T04:02:25;7.80;99.90
9951;DHT22;24074;49.254;6.702;2024-03-29T04:04:50;7.80;99.90
9951;DHT22;24074;49.254;6.702;2024-03-29T04:07:16;7.80;99.90
9951;DHT22;24074;49.254;6.702;2024-03-29T04:09:42;7.70;99.90
9951;DHT22;24074;49.254;6.702;2024-03-29T04:12:07;7.80;99.90
9951;DHT22;24074;49.254;6.702;2024-03-29T04:14:33;7.80;99.90
9951;DHT22;24074;49.254;6.702;2024-03-29T04:16:58;7.80;99.90
9951;DHT22;24074;49.254;6.702;2024-03-29T04:19:24;7.80;99.90
9951;DHT22;24074;49.254;6.702;2024-03-29T04:21:49;7.80;99.90
9951;DHT22;24074;49.254;6.702;2024-03-29T04:24:15;7.80;99.90
9951;DHT22;24074;49.254;6.702;2024-03-29T04:26:41;7.80;99.90
9951;DHT22;24074;49.254;6.702;2024-03-29T04:29:08;7.80;99.90
9951;DHT22;24074;49.254;6.702;2024-03-29T04:31:33;7.80;99.90
9951;DHT22;24074;49.254;6.702;2024-03-29T04:33:59;7.80;99.90
9951;DHT22;24074;49.254;6.702;2024-03-29T04:36:25;7.80;99.90
9951;DHT22;24074;49.254;6.702;2024-03-29T04:38:51;7.80;99.90
9951;DHT22;24074;49.254;6.702;2024-03-29T04:41:16;7.80;99.90
9951;DHT22;24074;49.254;6.702;2024-03-29T04:43:43;7.90;99.90
9951;DHT22;24074;49.254;6.702;2024-03-29T04:46:13;7.90;99.90
9951;DHT22;24074;49.254;6.702;2024-03-29T04:48:40;7.90;99.90
9951;DHT22;24074;49.254;6.702;2024-03-29T04:51:06;7.80;99.90
9951;DHT22;24074;49.254;6.702;2024-03-29T04:53:32;7.80;99.90
9951;DHT22;24074;49.254;6.702;2024-03-29T04:55:58;7.80;99.90
9951;DHT22;24074;49.254;6.702;2024-03-29T04:58:26;7.80;99.90
9951;DHT22;24074;49.254;6.702;2024-03-29T05:00:52;7.80;99.90
9951;DHT22;24074;49.254;6.702;2024-03-29T05:03:19;7.90;99.90
9951;DHT22;24074;49.254;6.702;2024-03-29T05:05:45;7.80;99.90
9951;DHT22;24074;49.254;6.702;2024-03-29T05:08:11;7.90;99.90
9951;DHT22;24074;49.254;6.702;2024-03-29T05:10:37;7.90;99.90
9951;DHT22;24074;49.254;6.702;2024-03-29T05:13:03;7.90;99.90
9951;DHT22;24074;49.254;6.702;2024-03-29T05:15:29;7.90;99.90
9951;DHT22;24074;49.254;6.702;2024-03-29T05:17:54;7.90;99.90
9951;DHT22;24074;49.254;6.702;2024-03-29T05:20:20;7.90;99.90
9951;DHT22;24074;49.254;6.702;2024-03-29T05:22:45;8.00;99.90
9951;DHT22;24074;49.254;6.702;2024-03-29T05:25:11;8.00;99.90
9951;DHT22;24074;49.254;6.702;2024-03-29T05:27:36;8.00;99.90
9951;DHT22;24074;49.254;6.702;2024-03-29T05:30:03;8.00;99.90
9951;DHT22;24074;49.254;6.702;2024-03-29T05:32:29;8.00;99.90
9951;DHT22;24074;49.254;6.702;2024-03-29T05:34:55;8.10;99.90
9951;DHT22;24074;49.254;6.702;2024-03-29T05:37:21;8.10;99.90
9951;DHT22;24074;49.254;6.702;2024-03-29T05:39:48;8.10;99.90
9951;DHT22;24074;49.254;6.702;2024-03-29T05:42:13;8.10;99.90
9951;DHT22;24074;49.254;6.702;2024-03-29T05:44:39;8.10;99.90
9951;DHT22;24074;49.254;6.702;2024-03-29T05:47:05;8.20;99.90
9951;DHT22;24074;49.254;6.702;2024-03-29T05:49:33;8.20;99.90
9951;DHT22;24074;49.254;6.702;2024-03-29T05:51:59;8.20;99.90
9951;DHT22;24074;49.254;6.702;2024-03-29T05:54:25;8.30;99.90
9951;DHT22;24074;49.254;6.702;2024-03-29T05:56:53;8.30;99.90
9951;DHT22;24074;49.254;6.702;2024-03-29T05:59:18;8.30;99.90
9951;DHT22;24074;49.254;6.702;2024-03-29T06:01:44;8.30;99.90
9951;DHT22;24074;49.254;6.702;2024-03-29T06:04:09;8.40;99.90
9951;DHT22;24074;49.254;6.702;2024-03-29T06:06:49;8.30;99.90
9951;DHT22;24074;49.254;6.702;2024-03-29T06:09:15;8.40;99.90
9951;DHT22;24074;49.254;6.702;2024-03-29T06:11:41;8.30;99.90
9951;DHT22;24074;49.254;6.702;2024-03-29T06:14:07;8.30;99.90
9951;DHT22;24074;49.254;6.702;2024-03-29T06:16:32;8.40;99.90
9951;DHT22;24074;49.254;6.702;2024-03-29T06:19:16;8.40;99.90
9951;DHT22;24074;49.254;6.702;2024-03-29T06:21:42;8.40;99.90
9951;DHT22;24074;49.254;6.702;2024-03-29T06:24:12;8.40;99.90
9951;DHT22;24074;49.254;6.702;2024-03-29T06:26:39;8.40;99.90
9951;DHT22;24074;49.254;6.702;2024-03-29T06:29:05;8.40;99.90
9951;DHT22;24074;49.254;6.702;2024-03-29T06:31:30;8.40;99.90
9951;DHT22;24074;49.254;6.702;2024-03-29T06:33:59;8.50;99.90
9951;DHT22;24074;49.254;6.702;2024-03-29T06:36:25;8.50;99.90
9951;DHT22;24074;49.254;6.702;2024-03-29T06:38:51;8.60;99.90
9951;DHT22;24074;49.254;6.702;2024-03-29T06:41:16;8.60;99.90
9951;DHT22;24074;49.254;6.702;2024-03-29T06:43:42;8.50;99.90
9951;DHT22;24074;49.254;6.702;2024-03-29T06:46:11;8.60;99.90
9951;DHT22;24074;49.254;6.702;2024-03-29T06:48:37;8.70;99.90
9951;DHT22;24074;49.254;6.702;2024-03-29T06:51:03;8.70;99.90
9951;DHT22;24074;49.254;6.702;2024-03-29T06:53:29;8.80;99.90
9951;DHT22;24074;49.254;6.702;2024-03-29T06:55:56;8.80;99.90
9951;DHT22;24074;49.254;6.702;2024-03-29T06:58:27;8.80;99.90
9951;DHT22;24074;49.254;6.702;2024-03-29T07:00:52;8.90;99.90
9951;DHT22;24074;49.254;6.702;2024-03-29T07:03:18;9.00;99.90
9951;DHT22;24074;49.254;6.702;2024-03-29T07:05:45;9.10;99.90
9951;DHT22;24074;49.254;6.702;2024-03-29T07:08:11;9.00;99.90
9951;DHT22;24074;49.254;6.702;2024-03-29T07:10:36;9.00;99.90
9951;DHT22;24074;49.254;6.702;2024-03-29T07:13:02;9.10;99.90
9951;DHT22;24074;49.254;6.702;2024-03-29T07:15:27;9.20;99.90
9951;DHT22;24074;49.254;6.702;2024-03-29T07:17:53;9.20;99.90
9951;DHT22;24074;49.254;6.702;2024-03-29T07:20:19;9.30;99.90
9951;DHT22;24074;49.254;6.702;2024-03-29T07:22:44;9.30;99.90
9951;DHT22;24074;49.254;6.702;2024-03-29T07:25:13;9.40;99.90
9951;DHT22;24074;49.254;6.702;2024-03-29T07:27:38;9.40;99.90
9951;DHT22;24074;49.254;6.702;2024-03-29T07:30:04;9.50;99.90
9951;DHT22;24074;49.254;6.702;2024-03-29T07:32:33;9.50;99.90
9951;DHT22;24074;49.254;6.702;2024-03-29T07:34:59;9.60;99.90
9951;DHT22;24074;49.254;6.702;2024-03-29T07:37:25;9.60;99.90
9951;DHT22;24074;49.254;6.702;2024-03-29T07:39:50;9.60;99.90
9951;DHT22;24074;49.254;6.702;2024-03-29T07:42:16;9.60;99.90
9951;DHT22;24074;49.254;6.702;2024-03-29T07:44:42;9.60;99.90
9951;DHT22;24074;49.254;6.702;2024-03-29T07:47:08;9.70;99.90
9951;DHT22;24074;49.254;6.702;2024-03-29T07:49:33;9.50;99.90
9951;DHT22;24074;49.254;6.702;2024-03-29T07:51:59;9.50;99.90
9951;DHT22;24074;49.254;6.702;2024-03-29T07:54:27;9.50;99.90
9951;DHT22;24074;49.254;6.702;2024-03-29T07:56:53;9.50;99.90
9951;DHT22;24074;49.254;6.702;2024-03-29T07:59:18;9.50;99.90
9951;DHT22;24074;49.254;6.702;2024-03-29T08:01:45;9.40;99.90
9951;DHT22;24074;49.254;6.702;2024-03-29T08:04:11;9.60;99.90
9951;DHT22;24074;49.254;6.702;2024-03-29T08:06:36;9.60;99.90
9951;DHT22;24074;49.254;6.702;2024-03-29T08:09:02;9.70;99.90
9951;DHT22;24074;49.254;6.702;2024-03-29T08:11:28;9.70;99.90
9951;DHT22;24074;49.254;6.702;2024-03-29T08:13:56;9.80;99.90
9951;DHT22;24074;49.254;6.702;2024-03-29T08:16:22;9.90;99.90
9951;DHT22;24074;49.254;6.702;2024-03-29T08:18:47;10.00;99.90
9951;DHT22;24074;49.254;6.702;2024-03-29T08:21:14;10.20;99.90
9951;DHT22;24074;49.254;6.702;2024-03-29T08:23:40;10.20;99.90
9951;DHT22;24074;49.254;6.702;2024-03-29T08:26:10;10.20;99.90
9951;DHT22;24074;49.254;6.702;2024-03-29T08:28:36;10.30;99.90
9951;DHT22;24074;49.254;6.702;2024-03-29T08:31:06;10.40;99.90
9951;DHT22;24074;49.254;6.702;2024-03-29T08:33:35;10.40;99.90
9951;DHT22;24074;49.254;6.702;2024-03-29T08:36:05;10.40;99.90
9951;DHT22;24074;49.254;6.702;2024-03-29T08:38:31;10.40;99.90
9951;DHT22;24074;49.254;6.702;2024-03-29T08:40:56;10.40;99.90
9951;DHT22;24074;49.254;6.702;2024-03-29T08:43:22;10.50;99.90
9951;DHT22;24074;49.254;6.702;2024-03-29T08:45:48;10.60;99.90
9951;DHT22;24074;49.254;6.702;2024-03-29T08:48:14;10.40;99.90
9951;DHT22;24074;49.254;6.702;2024-03-29T08:50:40;10.60;99.90
9951;DHT22;24074;49.254;6.702;2024-03-29T08:53:06;10.80;99.90
9951;DHT22;24074;49.254;6.702;2024-03-29T08:55:33;11.10;99.90
9951;DHT22;24074;49.254;6.702;2024-03-29T08:57:59;11.60;99.90
9951;DHT22;24074;49.254;6.702;2024-03-29T09:00:28;11.60;99.90
9951;DHT22;24074;49.254;6.702;2024-03-29T09:02:54;11.70;99.90
9951;DHT22;24074;49.254;6.702;2024-03-29T09:05:20;11.90;99.90
9951;DHT22;24074;49.254;6.702;2024-03-29T09:07:47;11.80;99.90
9951;DHT22;24074;49.254;6.702;2024-03-29T09:10:13;11.80;99.90
9951;DHT22;24074;49.254;6.702;2024-03-29T09:12:39;11.60;99.90
9951;DHT22;24074;49.254;6.702;2024-03-29T09:15:05;11.60;99.90
9951;DHT22;24074;49.254;6.702;2024-03-29T09:17:44;11.70;99.90
9951;DHT22;24074;49.254;6.702;2024-03-29T09:20:10;11.90;99.90
9951;DHT22;24074;49.254;6.702;2024-03-29T09:22:37;12.20;99.90
9951;DHT22;24074;49.254;6.702;2024-03-29T09:25:06;12.30;99.90
9951;DHT22;24074;49.254;6.702;2024-03-29T09:27:34;12.70;99.90
9951;DHT22;24074;49.254;6.702;2024-03-29T09:30:02;12.90;99.90
9951;DHT22;24074;49.254;6.702;2024-03-29T09:32:28;12.80;99.90
9951;DHT22;24074;49.254;6.702;2024-03-29T09:34:54;13.00;99.90
9951;DHT22;24074;49.254;6.702;2024-03-29T09:37:20;13.00;99.90
9951;DHT22;24074;49.254;6.702;2024-03-29T09:39:46;13.10;99.90
9951;DHT22;24074;49.254;6.702;2024-03-29T09:42:16;13.00;99.90
9951;DHT22;24074;49.254;6.702;2024-03-29T09:44:43;13.10;99.90
9951;DHT22;24074;49.254;6.702;2024-03-29T09:47:09;13.40;99.90
9951;DHT22;24074;49.254;6.702;2024-03-29T09:49:37;13.60;99.90
9951;DHT22;24074;49.254;6.702;2024-03-29T09:52:04;14.00;99.90
9951;DHT22;24074;49.254;6.702;2024-03-29T09:54:34;14.10;99.90
9951;DHT22;24074;49.254;6.702;2024-03-29T09:57:00;14.30;99.90
9951;DHT22;24074;49.254;6.702;2024-03-29T09:59:25;14.10;99.90
9951;DHT22;24074;49.254;6.702;2024-03-29T10:01:54;14.70;99.90
9951;DHT22;24074;49.254;6.702;2024-03-29T10:04:22;15.30;99.90
9951;DHT22;24074;49.254;6.702;2024-03-29T10:06:48;15.00;99.90
9951;DHT22;24074;49.254;6.702;2024-03-29T10:09:17;14.80;99.90
9951;DHT22;24074;49.254;6.702;2024-03-29T10:11:43;14.30;99.90
9951;DHT22;24074;49.254;6.702;2024-03-29T10:14:09;14.10;99.90
9951;DHT22;24074;49.254;6.702;2024-03-29T10:16:35;13.90;99.90
9951;DHT22;24074;49.254;6.702;2024-03-29T10:19:04;13.80;99.90
9951;DHT22;24074;49.254;6.702;2024-03-29T10:21:32;13.60;99.90
9951;DHT22;24074;49.254;6.702;2024-03-29T10:23:57;13.30;99.90
9951;DHT22;24074;49.254;6.702;2024-03-29T10:26:26;12.90;99.90
9951;DHT22;24074;49.254;6.702;2024-03-29T10:28:54;12.80;99.90
9951;DHT22;24074;49.254;6.702;2024-03-29T10:31:20;12.60;99.90
9951;DHT22;24074;49.254;6.702;2024-03-29T10:33:45;12.50;99.90
9951;DHT22;24074;49.254;6.702;2024-03-29T10:36:11;12.40;99.90
9951;DHT22;24074;49.254;6.702;2024-03-29T10:38:40;12.40;99.90
9951;DHT22;24074;49.254;6.702;2024-03-29T10:41:06;12.50;99.90
9951;DHT22;24074;49.254;6.702;2024-03-29T10:43:33;12.60;99.90
9951;DHT22;24074;49.254;6.702;2024-03-29T10:46:03;12.80;99.90
9951;DHT22;24074;49.254;6.702;2024-03-29T10:48:31;13.00;99.90
9951;DHT22;24074;49.254;6.702;2024-03-29T10:51:01;13.20;99.90
9951;DHT22;24074;49.254;6.702;2024-03-29T10:53:29;13.20;99.90
9951;DHT22;24074;49.254;6.702;2024-03-29T10:55:57;13.10;99.90
9951;DHT22;24074;49.254;6.702;2024-03-29T10:58:30;13.00;99.90
9951;DHT22;24074;49.254;6.702;2024-03-29T11:00:57;12.80;99.90
9951;DHT22;24074;49.254;6.702;2024-03-29T11:03:38;12.60;99.90
9951;DHT22;24074;49.254;6.702;2024-03-29T11:06:06;12.40;99.90
9951;DHT22;24074;49.254;6.702;2024-03-29T11:08:34;12.20;99.90
9951;DHT22;24074;49.254;6.702;2024-03-29T11:11:04;12.00;99.90
9951;DHT22;24074;49.254;6.702;2024-03-29T11:13:35;12.00;99.90
9951;DHT22;24074;49.254;6.702;2024-03-29T11:16:03;11.90;99.90
9951;DHT22;24074;49.254;6.702;2024-03-29T11:18:29;11.90;99.90
9951;DHT22;24074;49.254;6.702;2024-03-29T11:20:59;11.90;99.90
9951;DHT22;24074;49.254;6.702;2024-03-29T11:23:27;11.90;99.90
9951;DHT22;24074;49.254;6.702;2024-03-29T11:25:57;11.90;99.90
9951;DHT22;24074;49.254;6.702;2024-03-29T11:30:58;11.90;99.90
9951;DHT22;24074;49.254;6.702;2024-03-29T11:33:29;11.90;99.90
9951;DHT22;24074;49.254;6.702;2024-03-29T11:38:41;11.90;99.90
9951;DHT22;24074;49.254;6.702;2024-03-29T11:41:13;11.90;99.90
9951;DHT22;24074;49.254;6.702;2024-03-29T11:43:40;12.00;99.90
9951;DHT22;24074;49.254;6.702;2024-03-29T11:46:08;12.00;99.90
9951;DHT22;24074;49.254;6.702;2024-03-29T11:48:35;12.10;99.90
9951;DHT22;24074;49.254;6.702;2024-03-29T11:51:02;12.00;99.90
9951;DHT22;24074;49.254;6.702;2024-03-29T11:53:29;11.90;99.90
9951;DHT22;24074;49.254;6.702;2024-03-29T11:55:59;11.90;99.90
9951;DHT22;24074;49.254;6.702;2024-03-29T11:58:26;11.90;99.90
9951;DHT22;24074;49.254;6.702;2024-03-29T12:00:53;12.10;99.90
9951;DHT22;24074;49.254;6.702;2024-03-29T12:03:20;12.20;99.90
9951;DHT22;24074;49.254;6.702;2024-03-29T12:05:48;12.20;99.90
9951;DHT22;24074;49.254;6.702;2024-03-29T12:08:14;12.30;99.90
9951;DHT22;24074;49.254;6.702;2024-03-29T12:10:40;12.40;99.90
9951;DHT22;24074;49.254;6.702;2024-03-29T12:13:06;12.50;99.90
9951;DHT22;24074;49.254;6.702;2024-03-29T12:15:33;12.60;99.90
9951;DHT22;24074;49.254;6.702;2024-03-29T12:18:00;12.70;99.90
9951;DHT22;24074;49.254;6.702;2024-03-29T12:20:37;12.80;99.90
9951;DHT22;24074;49.254;6.702;2024-03-29T12:23:04;12.90;99.90
9951;DHT22;24074;49.254;6.702;2024-03-29T12:25:33;13.00;99.90
9951;DHT22;24074;49.254;6.702;2024-03-29T12:28:00;13.10;99.90
9951;DHT22;24074;49.254;6.702;2024-03-29T12:30:27;13.10;99.90
9951;DHT22;24074;49.254;6.702;2024-03-29T12:33:05;13.10;99.90
9951;DHT22;24074;49.254;6.702;2024-03-29T12:35:44;13.10;99.90
9951;DHT22;24074;49.254;6.702;2024-03-29T12:38:15;13.30;99.90
9951;DHT22;24074;49.254;6.702;2024-03-29T12:40:42;13.20;99.90
9951;DHT22;24074;49.254;6.702;2024-03-29T12:43:10;13.40;99.90
9951;DHT22;24074;49.254;6.702;2024-03-29T12:45:39;13.60;99.90
9951;DHT22;24074;49.254;6.702;2024-03-29T12:48:16;13.70;99.90
9951;DHT22;24074;49.254;6.702;2024-03-29T12:50:43;13.40;99.90
9951;DHT22;24074;49.254;6.702;2024-03-29T12:53:11;13.50;99.90
9951;DHT22;24074;49.254;6.702;2024-03-29T12:55:41;13.70;99.90
9951;DHT22;24074;49.254;6.702;2024-03-29T12:58:11;13.80;99.90
9951;DHT22;24074;49.254;6.702;2024-03-29T13:00:38;13.70;99.90
9951;DHT22;24074;49.254;6.702;2024-03-29T13:03:04;13.90;99.90
9951;DHT22;24074;49.254;6.702;2024-03-29T13:05:30;13.90;99.90
9951;DHT22;24074;49.254;6.702;2024-03-29T13:08:01;13.80;99.90
9951;DHT22;24074;49.254;6.702;2024-03-29T13:10:27;13.80;99.90
9951;DHT22;24074;49.254;6.702;2024-03-29T13:12:52;13.80;99.90
9951;DHT22;24074;49.254;6.702;2024-03-29T13:15:19;13.80;99.90
9951;DHT22;24074;49.254;6.702;2024-03-29T13:17:45;13.90;99.90
9951;DHT22;24074;49.254;6.702;2024-03-29T13:20:12;13.60;99.90
9951;DHT22;24074;49.254;6.702;2024-03-29T13:22:41;13.40;99.90
9951;DHT22;24074;49.254;6.702;2024-03-29T13:25:17;13.40;99.90
9951;DHT22;24074;49.254;6.702;2024-03-29T13:27:51;13.50;99.90
9951;DHT22;24074;49.254;6.702;2024-03-29T13:30:24;13.40;99.90
9951;DHT22;24074;49.254;6.702;2024-03-29T13:32:51;13.10;99.90
9951;DHT22;24074;49.254;6.702;2024-03-29T13:35:17;13.00;99.90
9951;DHT22;24074;49.254;6.702;2024-03-29T13:37:50;13.10;99.90
9951;DHT22;24074;49.254;6.702;2024-03-29T13:40:18;13.20;99.90
9951;DHT22;24074;49.254;6.702;2024-03-29T13:42:44;13.30;99.90
9951;DHT22;24074;49.254;6.702;2024-03-29T13:45:10;13.20;99.90
9951;DHT22;24074;49.254;6.702;2024-03-29T13:47:40;13.00;99.90
9951;DHT22;24074;49.254;6.702;2024-03-29T13:50:09;12.80;99.90
9951;DHT22;24074;49.254;6.702;2024-03-29T13:52:35;12.80;99.90
9951;DHT22;24074;49.254;6.702;2024-03-29T13:55:01;12.70;99.90
9951;DHT22;24074;49.254;6.702;2024-03-29T13:57:28;12.50;99.90
9951;DHT22;24074;49.254;6.702;2024-03-29T13:59:54;12.50;99.90
9951;DHT22;24074;49.254;6.702;2024-03-29T14:02:20;12.60;99.90
9951;DHT22;24074;49.254;6.702;2024-03-29T14:04:46;12.50;99.90
9951;DHT22;24074;49.254;6.702;2024-03-29T14:07:14;12.60;99.90
9951;DHT22;24074;49.254;6.702;2024-03-29T14:09:41;12.70;99.90
9951;DHT22;24074;49.254;6.702;2024-03-29T14:12:07;12.60;99.90
9951;DHT22;24074;49.254;6.702;2024-03-29T14:14:33;12.80;99.90
9951;DHT22;24074;49.254;6.702;2024-03-29T14:17:01;12.90;99.90
9951;DHT22;24074;49.254;6.702;2024-03-29T14:19:32;12.90;99.90
9951;DHT22;24074;49.254;6.702;2024-03-29T14:22:05;12.90;99.90
9951;DHT22;24074;49.254;6.702;2024-03-29T14:24:32;12.80;99.90
9951;DHT22;24074;49.254;6.702;2024-03-29T14:27:02;12.70;99.90
9951;DHT22;24074;49.254;6.702;2024-03-29T14:29:29;12.60;99.90
9951;DHT22;24074;49.254;6.702;2024-03-29T14:31:54;12.60;99.90
9951;DHT22;24074;49.254;6.702;2024-03-29T14:34:21;12.60;99.90
9951;DHT22;24074;49.254;6.702;2024-03-29T14:36:47;12.30;99.90
9951;DHT22;24074;49.254;6.702;2024-03-29T14:39:12;12.20;99.90
9951;DHT22;24074;49.254;6.702;2024-03-29T14:41:39;12.10;99.90
9951;DHT22;24074;49.254;6.702;2024-03-29T14:44:06;12.00;99.90
9951;DHT22;24074;49.254;6.702;2024-03-29T14:46:36;11.90;99.90
9951;DHT22;24074;49.254;6.702;2024-03-29T14:49:04;11.80;99.90
9951;DHT22;24074;49.254;6.702;2024-03-29T14:51:33;11.80;99.90
9951;DHT22;24074;49.254;6.702;2024-03-29T14:53:58;11.70;99.90
9951;DHT22;24074;49.254;6.702;2024-03-29T14:56:24;11.60;99.90
9951;DHT22;24074;49.254;6.702;2024-03-29T14:58:53;11.40;99.90
9951;DHT22;24074;49.254;6.702;2024-03-29T15:01:18;11.40;99.90
9951;DHT22;24074;49.254;6.702;2024-03-29T15:03:44;11.30;99.90
9951;DHT22;24074;49.254;6.702;2024-03-29T15:06:09;11.30;99.90
9951;DHT22;24074;49.254;6.702;2024-03-29T15:08:35;11.30;99.90
9951;DHT22;24074;49.254;6.702;2024-03-29T15:11:01;11.30;99.90
9951;DHT22;24074;49.254;6.702;2024-03-29T15:13:27;11.30;99.90
9951;DHT22;24074;49.254;6.702;2024-03-29T15:16:00;11.20;99.90
9951;DHT22;24074;49.254;6.702;2024-03-29T15:18:26;11.20;99.90
9951;DHT22;24074;49.254;6.702;2024-03-29T15:20:56;11.10;99.90
9951;DHT22;24074;49.254;6.702;2024-03-29T15:23:22;11.20;99.90
9951;DHT22;24074;49.254;6.702;2024-03-29T15:25:52;11.10;99.90
9951;DHT22;24074;49.254;6.702;2024-03-29T15:28:19;11.10;99.90
9951;DHT22;24074;49.254;6.702;2024-03-29T15:31:13;11.00;99.90
9951;DHT22;24074;49.254;6.702;2024-03-29T15:33:41;11.00;99.90
9951;DHT22;24074;49.254;6.702;2024-03-29T15:36:07;11.00;99.90
9951;DHT22;24074;49.254;6.702;2024-03-29T15:38:36;11.00;99.90
9951;DHT22;24074;49.254;6.702;2024-03-29T15:41:02;11.00;99.90
9951;DHT22;24074;49.254;6.702;2024-03-29T15:43:30;11.00;99.90
9951;DHT22;24074;49.254;6.702;2024-03-29T15:45:56;10.90;99.90
9951;DHT22;24074;49.254;6.702;2024-03-29T15:48:24;10.90;99.90
9951;DHT22;24074;49.254;6.702;2024-03-29T15:50:51;10.90;99.90
9951;DHT22;24074;49.254;6.702;2024-03-29T15:53:17;10.90;99.90
9951;DHT22;24074;49.254;6.702;2024-03-29T15:55:42;10.90;99.90
9951;DHT22;24074;49.254;6.702;2024-03-29T15:58:09;10.90;99.90